Time;durP1;ratioP1;P1;durP2;ratioP2;P2;SDS_P1;SDS_P2;PMS_P1;PMS_P2;Temp;Humidity;BMP_temperature;BMP_pressure;BME280_temperature;BME280_humidity;BME280_pressure;Samples;Min_cycle;Max_cycle;Signal;HPM_P1;HPM_P2
2023/04/25 00:01:35;;;;;;;;;;;;;;;10.14;58.79;92090.47;2041649;70;20063;-77
2023/04/25 00:04:02;;;;;;;;;;;;;;;10.18;58.71;92093.50;2041951;70;20086;-78
2023/04/25 00:06:29;;;;;;;;;;;;;;;10.24;58.21;92099.44;2041957;70;20366;-76
2023/04/25 00:08:56;;;;;;;;;;;;;;;10.17;58.29;92101.19;2041836;70;20178;-77
2023/04/25 00:11:21;;;;;;;;;;;;;;;10.09;59.65;92100.78;2041945;70;20409;-77
2023/04/25 00:13:49;;;;;;;;;;;;;;;10.16;58.15;92110.25;2041674;70;20052;-76
2023/04/25 00:16:15;;;;;;;;;;;;;;;10.18;57.90;92105.47;2041724;70;20051;-76
2023/04/25 00:18:46;;;;;;;;;;;;;;;10.09;59.57;92100.03;2041678;70;20048;-76
2023/04/25 00:21:11;;;;;;;;;;;;;;;9.08;62.75;92101.59;2041561;70;20071;-76
2023/04/25 00:23:38;;;;;;;;;;;;;;;9.33;62.96;92095.97;2041650;70;20055;-77
2023/04/25 00:26:04;;;;;;;;;;;;;;;9.45;61.84;92090.31;2041755;70;20485;-75
2023/04/25 00:28:29;;;;;;;;;;;;;;;9.59;61.64;92093.16;2041704;70;20074;-79
2023/04/25 00:30:57;;;;;;;;;;;;;;;9.66;60.55;92092.84;2042157;70;20063;-77
2023/04/25 00:33:23;;;;;;;;;;;;;;;9.70;60.89;92083.91;2041909;70;20070;-77
2023/04/25 00:35:49;;;;;;;;;;;;;;;9.70;60.91;92083.19;2041809;70;20056;-78
2023/04/25 00:38:15;;;;;;;;;;;;;;;9.75;60.88;92082.78;2041591;70;20055;-78
2023/04/25 00:40:43;;;;;;;;;;;;;;;9.80;60.67;92073.22;2041767;70;20136;-78
2023/04/25 00:43:10;;;;;;;;;;;;;;;9.80;59.94;92069.66;2041749;70;20115;-77
2023/04/25 00:45:38;;;;;;;;;;;;;;;9.67;61.61;92069.03;2038556;70;20056;-77
2023/04/25 00:48:04;;;;;;;;;;;;;;;9.54;62.19;92069.00;2041712;70;20095;-76
2023/04/25 00:50:30;;;;;;;;;;;;;;;9.52;61.29;92069.59;2041696;70;20060;-76
2023/04/25 00:52:55;;;;;;;;;;;;;;;9.56;61.10;92066.28;2041630;70;20071;-76
2023/04/25 00:55:21;;;;;;;;;;;;;;;9.75;59.87;92063.09;2041533;70;20443;-76
2023/04/25 00:57:46;;;;;;;;;;;;;;;9.63;59.99;92065.28;2037905;70;20439;-78
2023/04/25 01:00:14;;;;;;;;;;;;;;;9.62;60.15;92053.31;2041639;70;20103;-79
2023/04/25 01:02:40;;;;;;;;;;;;;;;9.60;60.25;92075.66;2041799;70;20055;-78
2023/04/25 01:05:06;;;;;;;;;;;;;;;9.54;60.65;92071.81;2041240;70;20075;-77
2023/04/25 01:07:31;;;;;;;;;;;;;;;9.57;60.38;92071.28;2041763;70;20415;-77
2023/04/25 01:09:57;;;;;;;;;;;;;;;9.60;60.10;92077.75;2040882;70;20048;-78
2023/04/25 01:12:23;;;;;;;;;;;;;;;9.64;60.31;92081.50;2041784;70;20158;-77
2023/04/25 01:14:49;;;;;;;;;;;;;;;9.66;59.94;92075.25;2038507;70;20127;-78
2023/04/25 01:17:14;;;;;;;;;;;;;;;9.60;60.54;92086.91;2041864;70;20099;-77
2023/04/25 01:19:40;;;;;;;;;;;;;;;9.68;61.02;92078.94;2041822;70;20066;-77
2023/04/25 01:22:06;;;;;;;;;;;;;;;9.67;60.58;92085.91;2041994;70;20716;-78
2023/04/25 01:24:39;;;;;;;;;;;;;;;9.31;62.60;92078.28;2041682;70;20055;-77
2023/04/25 01:27:06;;;;;;;;;;;;;;;9.39;61.47;92084.34;2041687;70;20087;-77
2023/04/25 01:29:33;;;;;;;;;;;;;;;9.21;62.31;92075.66;2041409;70;20058;-78
2023/04/25 01:31:59;;;;;;;;;;;;;;;9.42;61.41;92083.84;2038156;70;20066;-77
2023/04/25 01:34:25;;;;;;;;;;;;;;;9.44;61.78;92088.84;2038431;70;20052;-77
2023/04/25 01:36:52;;;;;;;;;;;;;;;9.52;62.85;92088.53;2038684;70;20052;-77
2023/04/25 01:39:18;;;;;;;;;;;;;;;9.52;62.15;92089.28;2038459;70;20467;-77
2023/04/25 01:41:44;;;;;;;;;;;;;;;9.48;62.35;92096.75;2041729;70;20063;-77
2023/04/25 01:44:10;;;;;;;;;;;;;;;9.45;62.57;92083.97;2037962;70;20045;-76
2023/04/25 01:46:36;;;;;;;;;;;;;;;9.61;62.85;92088.38;2038210;70;20055;-77
2023/04/25 01:49:02;;;;;;;;;;;;;;;9.50;63.89;92094.78;2038357;70;20063;-79
2023/04/25 01:51:28;;;;;;;;;;;;;;;9.61;63.39;92091.16;2038499;70;20058;-77
2023/04/25 01:53:54;;;;;;;;;;;;;;;9.60;64.02;92094.63;2038124;70;20057;-78
2023/04/25 01:56:20;;;;;;;;;;;;;;;9.57;64.52;92087.41;2038495;70;20089;-77
2023/04/25 01:58:47;;;;;;;;;;;;;;;9.60;63.76;92094.63;2038014;70;20066;-77
2023/04/25 02:01:33;;;;;;;;;;;;;;;9.41;63.47;92090.81;2041422;70;20060;-78
2023/04/25 02:04:12;;;;;;;;;;;;;;;9.23;64.37;92081.38;2038797;70;20130;-76
2023/04/25 02:06:41;;;;;;;;;;;;;;;9.26;64.22;92085.75;2038708;70;20047;-77
2023/04/25 02:09:08;;;;;;;;;;;;;;;9.37;64.51;92090.56;2038076;70;20111;-76
2023/04/25 02:11:41;;;;;;;;;;;;;;;9.48;64.76;92096.75;2038314;70;20495;-78
2023/04/25 02:14:38;;;;;;;;;;;;;;;9.44;66.03;92097.28;2035877;70;20098;-77
2023/04/25 02:17:15;;;;;;;;;;;;;;;9.36;67.40;92094.00;2041954;70;20099;-78
2023/04/25 02:19:41;;;;;;;;;;;;;;;9.38;66.96;92094.13;2041837;70;20094;-76
2023/04/25 02:22:06;;;;;;;;;;;;;;;9.35;65.53;92096.09;2038333;70;20150;-78
2023/04/25 02:24:33;;;;;;;;;;;;;;;9.22;66.06;92096.03;2041986;70;20098;-78
2023/04/25 02:26:59;;;;;;;;;;;;;;;9.06;66.88;92098.66;2038524;70;20123;-78
2023/04/25 02:29:24;;;;;;;;;;;;;;;9.12;67.18;92096.94;2041711;70;20072;-78
2023/04/25 02:31:50;;;;;;;;;;;;;;;9.13;66.26;92092.78;2041764;70;20023;-77
2023/04/25 02:34:16;;;;;;;;;;;;;;;9.08;66.50;92096.69;2041903;70;20143;-76
2023/04/25 02:36:41;;;;;;;;;;;;;;;9.09;66.60;92091.81;2041605;70;20147;-77
2023/04/25 02:39:07;;;;;;;;;;;;;;;9.19;66.19;92094.44;2038579;70;20059;-77
2023/04/25 02:41:33;;;;;;;;;;;;;;;9.06;65.94;92073.38;2041860;70;20048;-77
2023/04/25 02:43:59;;;;;;;;;;;;;;;9.06;67.05;92090.94;2041571;70;20150;-77
2023/04/25 02:46:24;;;;;;;;;;;;;;;9.09;67.76;92086.19;2041717;70;20055;-77
2023/04/25 02:48:49;;;;;;;;;;;;;;;9.02;67.91;92087.91;2041751;70;20134;-77
2023/04/25 02:51:16;;;;;;;;;;;;;;;9.08;66.78;92087.53;2041644;70;20079;-77
2023/04/25 02:53:42;;;;;;;;;;;;;;;8.71;67.52;92085.47;2038233;70;20151;-76
2023/04/25 02:56:07;;;;;;;;;;;;;;;9.06;65.84;92088.16;2038440;70;20435;-78
2023/04/25 02:58:33;;;;;;;;;;;;;;;9.01;67.20;92088.53;2038346;70;20059;-78
2023/04/25 03:00:58;;;;;;;;;;;;;;;8.95;68.03;92082.59;2038392;70;20082;-78
2023/04/25 03:03:24;;;;;;;;;;;;;;;9.00;67.00;92079.38;2041684;70;20077;-77
2023/04/25 03:05:50;;;;;;;;;;;;;;;8.98;66.86;92079.28;2038527;70;20484;-77
2023/04/25 03:08:20;;;;;;;;;;;;;;;9.00;67.30;92070.97;2038305;70;20055;-77
2023/04/25 03:10:46;;;;;;;;;;;;;;;8.95;67.26;92046.81;2038111;70;20055;-77
2023/04/25 03:13:13;;;;;;;;;;;;;;;9.07;67.05;92072.03;2038417;70;20059;-77
2023/04/25 03:15:41;;;;;;;;;;;;;;;8.90;67.49;92065.50;2041748;70;20048;-77
2023/04/25 03:18:06;;;;;;;;;;;;;;;8.98;67.46;92061.69;2041667;70;20273;-77
2023/04/25 03:20:32;;;;;;;;;;;;;;;9.01;67.35;92068.88;2038448;70;20143;-78
2023/04/25 03:22:57;;;;;;;;;;;;;;;8.92;68.22;92067.69;2042167;70;20044;-76
2023/04/25 03:25:23;;;;;;;;;;;;;;;8.88;67.71;92073.06;2038709;70;20428;-77
2023/04/25 03:27:48;;;;;;;;;;;;;;;8.87;68.08;92071.63;2042060;70;20151;-77
2023/04/25 03:30:14;;;;;;;;;;;;;;;8.93;67.81;92071.97;2042179;70;20052;-77
2023/04/25 03:32:41;;;;;;;;;;;;;;;9.01;68.03;92075.22;2042081;70;20370;-76
2023/04/25 03:35:06;;;;;;;;;;;;;;;8.98;67.67;92068.06;2042249;70;20060;-76
2023/04/25 03:37:32;;;;;;;;;;;;;;;9.04;66.67;92062.03;2038972;70;20059;-76
2023/04/25 03:39:57;;;;;;;;;;;;;;;8.82;66.86;92067.13;2042118;70;20059;-78
2023/04/25 03:42:29;;;;;;;;;;;;;;;9.07;66.27;92066.41;2038761;70;20082;-77
2023/04/25 03:44:55;;;;;;;;;;;;;;;8.99;66.84;92065.97;2038509;70;20500;-77
2023/04/25 03:47:21;;;;;;;;;;;;;;;9.00;66.81;92065.34;2038791;70;20114;-77
2023/04/25 03:49:51;;;;;;;;;;;;;;;8.85;68.06;92055.41;2038520;70;20059;-77
2023/04/25 03:52:19;;;;;;;;;;;;;;;8.88;68.90;92059.03;2038910;70;20164;-78
2023/04/25 03:54:46;;;;;;;;;;;;;;;8.80;68.26;92059.34;2038843;70;20052;-78
2023/04/25 03:57:18;;;;;;;;;;;;;;;8.79;67.76;92065.53;2038708;70;20044;-77
2023/04/25 03:59:44;;;;;;;;;;;;;;;8.82;67.95;92062.25;2038333;70;20054;-78
2023/04/25 04:02:12;;;;;;;;;;;;;;;8.73;68.63;92054.72;2038496;70;20057;-77
2023/04/25 04:04:38;;;;;;;;;;;;;;;8.69;68.79;92046.06;2038833;70;20055;-76
2023/04/25 04:07:05;;;;;;;;;;;;;;;8.40;68.83;92044.44;2038709;70;20433;-77
2023/04/25 04:09:34;;;;;;;;;;;;;;;8.54;68.39;92041.00;2038369;70;20059;-76
2023/04/25 04:12:03;;;;;;;;;;;;;;;8.47;68.17;92048.31;2038517;70;20056;-77
2023/04/25 04:14:30;;;;;;;;;;;;;;;8.35;68.70;92048.31;2038538;70;20491;-77
2023/04/25 04:16:55;;;;;;;;;;;;;;;8.45;67.84;92051.00;2038521;70;20151;-76
2023/04/25 04:19:21;;;;;;;;;;;;;;;8.48;67.82;92051.88;2038673;70;20044;-76
2023/04/25 04:21:55;;;;;;;;;;;;;;;8.37;67.94;92045.66;2038329;70;20050;-77
2023/04/25 04:24:20;;;;;;;;;;;;;;;8.44;67.94;92046.03;2038630;70;20056;-77
2023/04/25 04:26:54;;;;;;;;;;;;;;;8.15;69.81;92041.50;2038622;70;20143;-77
2023/04/25 04:29:36;;;;;;;;;;;;;;;8.28;68.64;92040.88;2041839;70;20068;-77
2023/04/25 04:32:34;;;;;;;;;;;;;;;8.36;67.33;92046.25;2039648;70;20127;-77
2023/04/25 04:35:00;;;;;;;;;;;;;;;8.32;67.77;92041.13;2037973;70;20135;-77
2023/04/25 04:37:25;;;;;;;;;;;;;;;8.30;68.06;92041.03;2038609;70;20178;-77
2023/04/25 04:39:51;;;;;;;;;;;;;;;8.25;68.29;92036.53;2038440;70;20154;-77
2023/04/25 04:42:32;;;;;;;;;;;;;;;8.21;68.89;92032.75;2042135;70;20063;-77
2023/04/25 04:45:18;;;;;;;;;;;;;;;8.21;68.57;92033.47;2036410;70;20561;-77
2023/04/25 04:48:21;;;;;;;;;;;;;;;8.37;67.95;92036.50;2028207;70;20121;-77
2023/04/25 04:50:46;;;;;;;;;;;;;;;8.30;68.02;92032.59;2038974;70;20072;-77
2023/04/25 04:53:30;;;;;;;;;;;;;;;8.28;67.86;92040.16;2041929;70;20086;-77
2023/04/25 04:56:16;;;;;;;;;;;;;;;8.21;67.90;92041.16;2038526;70;20080;-77
2023/04/25 04:58:52;;;;;;;;;;;;;;;8.39;67.51;92051.38;2038419;70;20052;-77
2023/04/25 05:01:21;;;;;;;;;;;;;;;8.49;66.63;92058.94;2042026;70;20048;-77
2023/04/25 05:04:03;;;;;;;;;;;;;;;8.42;68.11;92057.84;2038692;70;20226;-75
2023/04/25 05:07:01;;;;;;;;;;;;;;;8.45;67.10;92065.03;2034274;70;20011;-76
2023/04/25 05:09:52;;;;;;;;;;;;;;;8.54;67.74;92058.53;2042032;70;20047;-76
2023/04/25 05:12:37;;;;;;;;;;;;;;;8.57;67.93;92045.38;2042109;70;20087;-76
2023/04/25 05:15:11;;;;;;;;;;;;;;;8.44;68.25;92040.41;2042140;70;20051;-77
2023/04/25 05:17:49;;;;;;;;;;;;;;;8.43;68.27;92034.06;2042038;70;20401;-77
2023/04/25 05:20:18;;;;;;;;;;;;;;;8.77;67.33;92034.56;2042016;70;20051;-77
2023/04/25 05:23:02;;;;;;;;;;;;;;;8.78;67.22;92019.19;2042074;70;20054;-77
2023/04/25 05:25:40;;;;;;;;;;;;;;;8.82;67.53;92013.81;2038772;70;20532;-76
2023/04/25 05:28:13;;;;;;;;;;;;;;;8.94;66.45;92019.38;2038501;70;20052;-77
2023/04/25 05:30:44;;;;;;;;;;;;;;;8.91;66.62;92016.44;2042045;70;20484;-73
2023/04/25 05:33:15;;;;;;;;;;;;;;;9.03;66.28;92015.69;2041944;70;20051;-75
2023/04/25 05:35:43;;;;;;;;;;;;;;;8.98;67.78;92006.31;2038659;70;20062;-77
2023/04/25 05:38:10;;;;;;;;;;;;;;;8.88;68.17;92003.63;2038302;70;20154;-75
2023/04/25 05:40:54;;;;;;;;;;;;;;;8.85;68.15;92004.16;2041958;70;20062;-76
2023/04/25 05:43:37;;;;;;;;;;;;;;;8.97;67.45;92004.81;2038355;70;20048;-77
2023/04/25 05:46:19;;;;;;;;;;;;;;;9.25;66.24;92016.16;2038583;70;20576;-77
2023/04/25 05:49:05;;;;;;;;;;;;;;;9.41;66.77;92017.75;2039380;70;20044;-76
2023/04/25 05:51:53;;;;;;;;;;;;;;;9.32;68.64;92024.28;2042020;70;20059;-79
2023/04/25 05:54:39;;;;;;;;;;;;;;;9.54;68.06;92021.97;2038757;70;20056;-80
2023/04/25 05:57:05;;;;;;;;;;;;;;;9.71;67.03;92023.53;2041786;70;20044;-78
2023/04/25 05:59:31;;;;;;;;;;;;;;;9.08;67.69;92015.28;2038187;70;20127;-78
2023/04/25 06:01:56;;;;;;;;;;;;;;;9.02;68.34;92017.00;2038674;70;20056;-77
2023/04/25 06:04:22;;;;;;;;;;;;;;;8.67;68.71;92011.56;2038467;70;20520;-79
2023/04/25 06:06:47;;;;;;;;;;;;;;;9.00;67.73;92012.00;2038588;70;20491;-78
2023/04/25 06:09:13;;;;;;;;;;;;;;;8.89;67.48;92007.94;2041983;70;20059;-80
2023/04/25 06:11:38;;;;;;;;;;;;;;;9.29;67.20;92003.06;2038617;70;20139;-78
2023/04/25 06:14:06;;;;;;;;;;;;;;;9.64;65.08;91999.28;2038496;70;20008;-77
2023/04/25 06:16:33;;;;;;;;;;;;;;;9.96;64.27;92005.16;2038172;70;20405;-76
2023/04/25 06:18:58;;;;;;;;;;;;;;;9.36;65.46;92007.66;2038256;70;20054;-79
2023/04/25 06:21:25;;;;;;;;;;;;;;;9.86;65.38;92017.31;2038680;70;20051;-76
2023/04/25 06:23:50;;;;;;;;;;;;;;;10.00;65.76;92014.53;2038833;70;20050;-76
2023/04/25 06:26:20;;;;;;;;;;;;;;;10.23;62.82;92010.78;2038681;70;20079;-77
2023/04/25 06:28:46;;;;;;;;;;;;;;;10.11;61.94;92004.53;2038843;70;20235;-77
2023/04/25 06:31:12;;;;;;;;;;;;;;;9.88;62.74;92002.63;2038070;70;20518;-77
2023/04/25 06:33:39;;;;;;;;;;;;;;;10.14;62.41;92003.28;2038618;70;20052;-78
2023/04/25 06:36:04;;;;;;;;;;;;;;;10.53;59.94;92003.16;2041714;70;20059;-77
2023/04/25 06:38:30;;;;;;;;;;;;;;;10.56;61.13;91992.72;2038458;70;20078;-77
2023/04/25 06:40:57;;;;;;;;;;;;;;;10.28;61.08;91995.59;2038273;70;20051;-79
2023/04/25 06:43:22;;;;;;;;;;;;;;;10.41;60.63;91980.78;2038637;70;20476;-79
2023/04/25 06:46:03;;;;;;;;;;;;;;;10.13;60.73;91962.44;2041930;70;20491;-77
2023/04/25 06:48:31;;;;;;;;;;;;;;;10.15;59.72;91957.63;2038568;70;20055;-77
2023/04/25 06:50:57;;;;;;;;;;;;;;;10.49;59.74;91966.38;2038250;70;20267;-78
2023/04/25 06:53:23;;;;;;;;;;;;;;;10.52;61.03;91979.19;2038309;70;20051;-77
2023/04/25 06:55:55;;;;;;;;;;;;;;;10.10;61.67;91978.47;2038268;70;20420;-76
2023/04/25 06:58:22;;;;;;;;;;;;;;;9.85;63.73;91984.19;2038504;70;20059;-76
2023/04/25 07:01:07;;;;;;;;;;;;;;;10.11;62.89;91987.66;2042010;70;20517;-77
2023/04/25 07:03:33;;;;;;;;;;;;;;;9.48;64.85;91987.19;2038615;70;20051;-76
2023/04/25 07:06:05;;;;;;;;;;;;;;;9.29;66.04;91989.00;2038706;70;20148;-78
2023/04/25 07:08:30;;;;;;;;;;;;;;;9.39;65.50;91988.81;2038944;70;20146;-77
2023/04/25 07:10:57;;;;;;;;;;;;;;;9.78;65.21;91982.44;2038931;70;20158;-78
2023/04/25 07:13:22;;;;;;;;;;;;;;;9.90;62.62;91983.09;2042089;70;20484;-78
2023/04/25 07:15:48;;;;;;;;;;;;;;;10.35;59.65;91972.00;2038862;70;20051;-76
2023/04/25 07:18:15;;;;;;;;;;;;;;;10.76;59.39;91974.00;2038929;70;20060;-76
2023/04/25 07:20:41;;;;;;;;;;;;;;;11.16;58.64;91978.03;2035698;70;20048;-76
2023/04/25 07:23:06;;;;;;;;;;;;;;;11.16;58.94;91974.47;2038891;70;20115;-76
2023/04/25 07:25:32;;;;;;;;;;;;;;;11.45;58.24;91970.88;2038942;70;20500;-77
2023/04/25 07:27:58;;;;;;;;;;;;;;;11.61;56.45;91968.81;2038822;70;20048;-76
2023/04/25 07:30:25;;;;;;;;;;;;;;;11.62;56.29;91959.00;2038548;70;20123;-76
2023/04/25 07:32:50;;;;;;;;;;;;;;;11.84;57.22;91967.03;2038875;70;20056;-77
2023/04/25 07:35:16;;;;;;;;;;;;;;;11.94;57.08;91965.38;2041928;70;20158;-77
2023/04/25 07:37:41;;;;;;;;;;;;;;;10.99;58.27;91958.19;2042270;70;20054;-76
2023/04/25 07:40:11;;;;;;;;;;;;;;;11.64;57.28;91956.28;2038903;70;20480;-77
2023/04/25 07:42:42;;;;;;;;;;;;;;;11.79;55.50;91948.44;2038602;70;20381;-77
2023/04/25 07:45:09;;;;;;;;;;;;;;;11.05;57.41;91962.03;2038252;70;20060;-77
2023/04/25 07:47:35;;;;;;;;;;;;;;;11.33;56.75;91970.34;2038295;70;20048;-77
2023/04/25 07:50:01;;;;;;;;;;;;;;;11.74;56.20;91975.00;2038345;70;20448;-78
2023/04/25 07:52:27;;;;;;;;;;;;;;;11.90;55.90;91970.09;2035607;70;20094;-77
2023/04/25 07:55:00;;;;;;;;;;;;;;;11.57;55.90;91967.91;2038179;70;20052;-74
2023/04/25 07:57:34;;;;;;;;;;;;;;;11.85;55.43;91969.19;2035444;70;20400;-77
2023/04/25 08:00:00;;;;;;;;;;;;;;;12.12;55.09;91976.00;2038385;70;20068;-78
2023/04/25 08:02:28;;;;;;;;;;;;;;;12.48;54.21;91967.66;2035636;70;20119;-79
2023/04/25 08:04:55;;;;;;;;;;;;;;;12.57;53.87;91969.44;2038337;70;20052;-76
2023/04/25 08:07:20;;;;;;;;;;;;;;;12.30;53.91;91959.13;2035432;70;20511;-74
2023/04/25 08:09:52;;;;;;;;;;;;;;;12.00;54.00;91956.44;2037975;70;20063;-75
2023/04/25 08:12:31;;;;;;;;;;;;;;;12.45;54.81;91952.69;2038212;70;20133;-75
2023/04/25 08:14:57;;;;;;;;;;;;;;;13.23;56.02;91951.66;2035272;70;20060;-75
2023/04/25 08:17:25;;;;;;;;;;;;;;;12.13;52.50;91952.78;2038148;70;20163;-75
2023/04/25 08:19:50;;;;;;;;;;;;;;;12.61;51.60;91952.66;2038043;70;20132;-76
2023/04/25 08:22:23;;;;;;;;;;;;;;;13.06;51.38;91951.66;2039255;70;20393;-75
2023/04/25 08:25:11;;;;;;;;;;;;;;;12.75;50.83;91944.78;2035236;70;20056;-75
2023/04/25 08:27:37;;;;;;;;;;;;;;;12.25;50.08;91951.84;2038120;70;20108;-76
2023/04/25 08:30:03;;;;;;;;;;;;;;;12.76;50.51;91946.22;2035431;70;20055;-76
2023/04/25 08:32:29;;;;;;;;;;;;;;;12.17;49.92;91947.31;2035466;70;20055;-76
2023/04/25 08:35:27;;;;;;;;;;;;;;;13.15;49.41;91940.03;2034557;70;20119;-76
2023/04/25 08:37:53;;;;;;;;;;;;;;;13.77;49.43;91945.91;2038085;70;20485;-76
2023/04/25 08:40:19;;;;;;;;;;;;;;;12.65;48.21;91947.91;2038242;70;20048;-78
2023/04/25 08:42:45;;;;;;;;;;;;;;;12.38;47.46;91943.28;2035389;70;20067;-75
2023/04/25 08:45:12;;;;;;;;;;;;;;;13.31;48.59;91950.53;2038302;70;20048;-76
2023/04/25 08:47:42;;;;;;;;;;;;;;;13.84;47.83;91944.75;2035523;70;20044;-75
2023/04/25 08:50:08;;;;;;;;;;;;;;;14.53;46.80;91945.78;2037973;70;20056;-75
2023/04/25 08:52:45;;;;;;;;;;;;;;;15.07;47.57;91949.69;2038321;70;20063;-76
2023/04/25 08:55:11;;;;;;;;;;;;;;;15.97;44.96;91958.13;2038237;70;20493;-77
2023/04/25 08:57:38;;;;;;;;;;;;;;;15.77;43.16;91949.75;2038359;70;20064;-77
2023/04/25 09:00:04;;;;;;;;;;;;;;;14.22;41.32;91944.69;2038597;70;20048;-78
2023/04/25 09:02:32;;;;;;;;;;;;;;;15.12;41.61;91939.94;2035352;70;20063;-76
2023/04/25 09:04:58;;;;;;;;;;;;;;;15.07;41.57;91938.34;2038588;70;20048;-75
2023/04/25 09:07:25;;;;;;;;;;;;;;;16.70;41.04;91954.47;2038812;70;20045;-76
2023/04/25 09:09:51;;;;;;;;;;;;;;;16.01;40.45;91946.88;2037976;70;20049;-76
2023/04/25 09:12:19;;;;;;;;;;;;;;;17.00;41.63;91943.19;2038192;70;20049;-78
2023/04/25 09:15:01;;;;;;;;;;;;;;;15.77;40.60;91946.19;2035318;70;20446;-76
2023/04/25 09:17:41;;;;;;;;;;;;;;;15.70;39.46;91948.81;2037932;70;20489;-76
2023/04/25 09:20:07;;;;;;;;;;;;;;;16.33;39.69;91952.75;2038021;70;20067;-75
2023/04/25 09:22:34;;;;;;;;;;;;;;;15.70;40.23;91953.78;2038132;70;20106;-75
2023/04/25 09:25:02;;;;;;;;;;;;;;;15.13;41.48;91954.84;2037942;70;20492;-74
2023/04/25 09:27:28;;;;;;;;;;;;;;;14.55;42.76;91962.81;2038523;70;20118;-76
2023/04/25 09:30:01;;;;;;;;;;;;;;;14.84;41.90;91951.06;2038397;70;20044;-76
2023/04/25 09:32:33;;;;;;;;;;;;;;;14.35;42.29;91968.50;2038626;70;20063;-76
2023/04/25 09:34:59;;;;;;;;;;;;;;;15.23;41.58;91970.06;2038537;70;20491;-76
2023/04/25 09:37:28;;;;;;;;;;;;;;;15.27;41.29;91963.78;2038409;70;20132;-76
2023/04/25 09:40:05;;;;;;;;;;;;;;;15.71;40.32;91969.41;2041783;70;20500;-76
2023/04/25 09:42:34;;;;;;;;;;;;;;;15.63;41.32;91974.81;2041281;70;20062;-77
2023/04/25 09:45:02;;;;;;;;;;;;;;;13.55;43.66;91967.69;2041235;70;20055;-78
2023/04/25 09:47:37;;;;;;;;;;;;;;;14.31;42.72;91969.06;2038764;70;20153;-77
2023/04/25 09:50:03;;;;;;;;;;;;;;;14.85;42.50;91977.31;2038603;70;20051;-77
2023/04/25 09:52:28;;;;;;;;;;;;;;;13.72;44.54;91981.06;2042118;70;20496;-77
2023/04/25 09:55:18;;;;;;;;;;;;;;;13.75;43.71;91976.94;2040819;70;20556;-76
2023/04/25 09:57:48;;;;;;;;;;;;;;;14.36;43.25;91978.44;2041064;70;20477;-76
2023/04/25 10:00:16;;;;;;;;;;;;;;;15.63;40.54;91980.50;2041914;70;20075;-76
2023/04/25 10:02:42;;;;;;;;;;;;;;;16.28;39.48;91976.75;2038480;70;20468;-76
2023/04/25 10:05:13;;;;;;;;;;;;;;;16.30;39.54;91976.06;2038719;70;20059;-76
2023/04/25 10:07:40;;;;;;;;;;;;;;;16.40;40.21;91979.94;2041627;70;20055;-77
2023/04/25 10:10:12;;;;;;;;;;;;;;;16.38;40.65;91977.03;2038480;70;20559;-76
2023/04/25 10:12:40;;;;;;;;;;;;;;;16.74;39.91;91976.59;2041806;70;20048;-76
2023/04/25 10:15:07;;;;;;;;;;;;;;;17.19;38.31;91969.22;2041996;70;20096;-76
2023/04/25 10:17:33;;;;;;;;;;;;;;;16.35;36.90;91971.97;2041728;70;20567;-78
2023/04/25 10:20:01;;;;;;;;;;;;;;;17.16;38.18;91979.09;2041564;70;20091;-79
2023/04/25 10:22:32;;;;;;;;;;;;;;;18.59;36.18;91980.16;2041845;70;20223;-77
2023/04/25 10:24:58;;;;;;;;;;;;;;;19.54;35.17;91980.47;2041944;70;20106;-78
2023/04/25 10:27:24;;;;;;;;;;;;;;;18.84;34.97;91967.16;2041407;70;20099;-78
2023/04/25 10:30:04;;;;;;;;;;;;;;;17.41;34.44;91963.34;2041843;70;20208;-77
2023/04/25 10:32:33;;;;;;;;;;;;;;;17.53;35.38;91972.16;2042095;70;20047;-77
2023/04/25 10:35:09;;;;;;;;;;;;;;;18.18;33.68;91964.38;2042454;70;20070;-77
2023/04/25 10:37:35;;;;;;;;;;;;;;;17.42;33.93;91964.81;2042447;70;20048;-78
2023/04/25 10:40:08;;;;;;;;;;;;;;;15.79;35.61;91958.31;2039107;70;20058;-77
2023/04/25 10:42:33;;;;;;;;;;;;;;;16.95;34.58;91957.94;2039187;70;20060;-75
2023/04/25 10:45:04;;;;;;;;;;;;;;;16.56;35.83;91951.25;2038890;70;20045;-76
2023/04/25 10:47:36;;;;;;;;;;;;;;;16.22;36.88;91954.59;2038926;70;20080;-77
2023/04/25 10:50:06;;;;;;;;;;;;;;;17.28;35.87;91971.59;2038919;70;20108;-77
2023/04/25 10:52:32;;;;;;;;;;;;;;;16.05;36.55;91972.56;2039038;70;20512;-78
2023/04/25 10:54:58;;;;;;;;;;;;;;;15.55;38.22;91975.28;2038770;70;20497;-78
2023/04/25 10:57:28;;;;;;;;;;;;;;;16.07;38.06;91983.97;2039012;70;20060;-78
2023/04/25 10:59:54;;;;;;;;;;;;;;;15.57;38.86;92011.50;2038978;70;20058;-78
2023/04/25 11:02:19;;;;;;;;;;;;;;;13.59;42.71;91998.94;2039229;70;20151;-77
2023/04/25 11:04:45;;;;;;;;;;;;;;;13.97;42.19;92002.50;2039195;70;20095;-78
2023/04/25 11:07:20;;;;;;;;;;;;;;;13.53;43.43;92013.59;2038847;70;20507;-78
2023/04/25 11:09:45;;;;;;;;;;;;;;;13.57;43.55;92001.72;2039109;70;20120;-77
2023/04/25 11:12:14;;;;;;;;;;;;;;;13.88;42.65;92006.41;2038923;70;20457;-78
2023/04/25 11:14:40;;;;;;;;;;;;;;;14.80;41.77;92023.88;2038866;70;20573;-78
2023/04/25 11:17:06;;;;;;;;;;;;;;;14.67;40.66;92011.41;2039107;70;20092;-77
2023/04/25 11:19:31;;;;;;;;;;;;;;;15.31;41.65;92026.31;2039086;70;20143;-78
2023/04/25 11:21:57;;;;;;;;;;;;;;;16.22;39.09;92024.88;2039038;70;20080;-78
2023/04/25 11:24:29;;;;;;;;;;;;;;;14.81;38.15;92031.72;2038841;70;20084;-78
2023/04/25 11:26:55;;;;;;;;;;;;;;;16.02;38.56;92037.06;2038877;70;20045;-78
2023/04/25 11:29:26;;;;;;;;;;;;;;;16.41;38.44;92038.19;2038746;70;20491;-78
2023/04/25 11:31:52;;;;;;;;;;;;;;;15.72;36.84;92036.84;2038803;70;20508;-78
2023/04/25 11:34:19;;;;;;;;;;;;;;;14.86;40.49;92030.47;2039047;70;20056;-78
2023/04/25 11:36:45;;;;;;;;;;;;;;;15.23;38.80;92032.44;2038990;70;20582;-79
2023/04/25 11:39:11;;;;;;;;;;;;;;;15.29;37.91;92034.72;2038802;70;20107;-78
2023/04/25 11:41:39;;;;;;;;;;;;;;;16.39;35.75;92023.19;2039580;70;20107;-78
2023/04/25 11:44:05;;;;;;;;;;;;;;;17.24;35.12;92025.53;2041915;70;20048;-78
2023/04/25 11:46:33;;;;;;;;;;;;;;;16.10;37.27;92019.53;2041517;70;20052;-77
2023/04/25 11:48:59;;;;;;;;;;;;;;;15.94;38.67;92013.38;2042026;70;20051;-77
2023/04/25 11:51:25;;;;;;;;;;;;;;;15.62;39.27;92021.59;2041986;70;20052;-77
2023/04/25 11:53:51;;;;;;;;;;;;;;;14.86;38.99;92018.41;2042224;70;20051;-77
2023/04/25 11:56:16;;;;;;;;;;;;;;;14.34;40.26;92023.66;2042057;70;20075;-76
2023/04/25 11:58:58;;;;;;;;;;;;;;;13.16;42.39;92019.88;2038601;70;20043;-76
2023/04/25 12:01:30;;;;;;;;;;;;;;;14.28;40.95;92024.16;2042099;70;20056;-77
2023/04/25 12:03:57;;;;;;;;;;;;;;;16.42;39.56;92008.41;2042153;70;20051;-76
2023/04/25 12:06:26;;;;;;;;;;;;;;;18.80;32.21;92012.69;2041980;70;20454;-77
2023/04/25 12:09:02;;;;;;;;;;;;;;;20.19;29.73;92021.47;2042137;70;20103;-77
2023/04/25 12:11:29;;;;;;;;;;;;;;;26.84;25.41;92025.84;2042227;70;20056;-78
2023/04/25 12:13:55;;;;;;;;;;;;;;;27.76;21.73;92019.00;2041773;70;20162;-78
2023/04/25 12:16:20;;;;;;;;;;;;;;;29.93;20.79;92026.75;2042016;70;20496;-78
2023/04/25 12:18:45;;;;;;;;;;;;;;;32.23;18.18;92032.31;2039021;70;20111;-79
2023/04/25 12:21:11;;;;;;;;;;;;;;;31.85;17.81;92028.41;2041364;70;20075;-77
2023/04/25 12:23:38;;;;;;;;;;;;;;;33.16;16.79;92024.94;2041135;70;20083;-79
2023/04/25 12:26:04;;;;;;;;;;;;;;;34.20;14.31;92020.47;2041570;70;20068;-79
2023/04/25 12:28:33;;;;;;;;;;;;;;;28.93;18.98;92009.16;2041168;70;20059;-78
2023/04/25 12:30:58;;;;;;;;;;;;;;;23.77;21.20;91996.31;2041330;70;20068;-79
2023/04/25 12:33:29;;;;;;;;;;;;;;;21.88;23.50;91993.31;2041780;70;20066;-79
2023/04/25 12:35:55;;;;;;;;;;;;;;;21.14;24.08;92006.94;2042003;70;20531;-79
2023/04/25 12:38:29;;;;;;;;;;;;;;;22.11;24.35;91991.34;2038884;70;20052;-79
2023/04/25 12:40:56;;;;;;;;;;;;;;;23.86;22.09;91985.56;2042321;70;20496;-79
2023/04/25 12:43:22;;;;;;;;;;;;;;;26.53;20.21;91993.72;2041923;70;20051;-79
2023/04/25 12:45:52;;;;;;;;;;;;;;;30.62;16.98;92001.88;2038712;70;20059;-79
2023/04/25 12:48:17;;;;;;;;;;;;;;;27.91;18.75;91993.50;2041973;70;20068;-79
2023/04/25 12:50:43;;;;;;;;;;;;;;;24.35;20.57;91986.94;2041755;70;20496;-77
2023/04/25 12:53:09;;;;;;;;;;;;;;;22.24;23.90;91981.41;2041900;70;20115;-79
2023/04/25 12:55:35;;;;;;;;;;;;;;;19.48;26.26;91989.66;2038554;70;20430;-78
2023/04/25 12:58:00;;;;;;;;;;;;;;;19.61;27.44;91987.75;2041605;70;20058;-79
2023/04/25 13:00:26;;;;;;;;;;;;;;;18.99;27.91;91983.09;2041678;70;20158;-78
2023/04/25 13:02:51;;;;;;;;;;;;;;;20.08;28.21;91973.44;2041807;70;20141;-78